Time;durP1;ratioP1;P1;durP2;ratioP2;P2;SDS_P1;SDS_P2;PMS_P1;PMS_P2;Temp;Humidity;BMP_temperature;BMP_pressure;BME280_temperature;BME280_humidity;BME280_pressure;Samples;Min_cycle;Max_cycle;Signal;HPM_P1;HPM_P2
2021/07/28 00:01:24;;;;;;;18.88;9.43;;;;;;;;;;5095387;28;20075;-78
2021/07/28 00:03:50;;;;;;;20.35;10.20;;;;;;;;;;5095043;28;20124;-78
2021/07/28 00:06:19;;;;;;;21.42;10.98;;;;;;;;;;5095129;28;20032;-77
2021/07/28 00:08:44;;;;;;;20.33;10.05;;;;;;;;;;5095114;28;20027;-77
2021/07/28 00:11:13;;;;;;;21.30;10.82;;;;;;;;;;5095030;28;20027;-77
2021/07/28 00:13:38;;;;;;;28.15;11.73;;;;;;;;;;5094752;28;20480;-77
2021/07/28 00:16:09;;;;;;;31.70;11.85;;;;;;;;;;5094994;28;20104;-78
2021/07/28 00:18:42;;;;;;;25.52;11.52;;;;;;;;;;5094967;28;20032;-77
2021/07/28 00:23:52;;;;;;;40.05;13.55;;;;;;;;;;5093688;28;20034;-77
2021/07/28 00:26:17;;;;;;;35.13;12.85;;;;;;;;;;5094811;28;20455;-78
2021/07/28 00:28:42;;;;;;;25.42;12.73;;;;;;;;;;5094803;28;20020;-77
2021/07/28 00:31:07;;;;;;;32.80;13.68;;;;;;;;;;5094719;28;20020;-78
2021/07/28 00:33:33;;;;;;;35.97;14.13;;;;;;;;;;5094668;28;20559;-77
2021/07/28 00:35:59;;;;;;;36.45;13.02;;;;;;;;;;5094179;28;20047;-78
2021/07/28 00:38:25;;;;;;;29.90;13.38;;;;;;;;;;5094548;28;20039;-77
2021/07/28 00:40:51;;;;;;;34.55;13.60;;;;;;;;;;5094573;28;20110;-78
2021/07/28 00:43:16;;;;;;;33.63;14.25;;;;;;;;;;5093982;28;20020;-78
2021/07/28 00:45:42;;;;;;;38.03;14.45;;;;;;;;;;5094416;28;20053;-78
2021/07/28 00:48:08;;;;;;;43.83;15.00;;;;;;;;;;5094186;28;20036;-78
2021/07/28 00:50:34;;;;;;;34.13;13.82;;;;;;;;;;5094391;28;20416;-77
2021/07/28 00:53:02;;;;;;;42.25;15.63;;;;;;;;;;5094334;28;20016;-78
2021/07/28 00:55:28;;;;;;;29.70;13.68;;;;;;;;;;5094259;28;20032;-78
2021/07/28 00:57:53;;;;;;;35.33;14.95;;;;;;;;;;5094097;28;20381;-77
2021/07/28 01:00:19;;;;;;;42.20;15.27;;;;;;;;;;5094149;28;20016;-78
2021/07/28 01:02:44;;;;;;;35.47;15.00;;;;;;;;;;5094189;28;20115;-78
2021/07/28 01:05:09;;;;;;;34.05;14.82;;;;;;;;;;5094032;28;20159;-78
2021/07/28 01:07:35;;;;;;;37.10;14.95;;;;;;;;;;5094177;28;20035;-78
2021/07/28 01:10:00;;;;;;;32.97;13.43;;;;;;;;;;5094297;28;20046;-78
2021/07/28 01:12:28;;;;;;;39.33;15.40;;;;;;;;;;5093981;28;20043;-78
2021/07/28 01:14:54;;;;;;;38.17;15.00;;;;;;;;;;5093723;28;20047;-78
2021/07/28 01:17:19;;;;;;;31.65;14.32;;;;;;;;;;5093517;28;20132;-78
2021/07/28 01:19:48;;;;;;;30.02;14.75;;;;;;;;;;5093806;28;20031;-77
2021/07/28 01:22:14;;;;;;;37.20;15.93;;;;;;;;;;5093814;28;20020;-77
2021/07/28 01:24:39;;;;;;;43.35;16.98;;;;;;;;;;5093508;28;20046;-78
2021/07/28 01:27:05;;;;;;;48.63;17.20;;;;;;;;;;5093782;28;20063;-78
2021/07/28 01:29:31;;;;;;;41.25;16.83;;;;;;;;;;5093453;28;20521;-78
2021/07/28 01:31:56;;;;;;;35.22;16.70;;;;;;;;;;5093670;28;20032;-78
2021/07/28 01:34:22;;;;;;;48.30;18.20;;;;;;;;;;5093603;28;20416;-78
2021/07/28 01:36:48;;;;;;;46.88;17.75;;;;;;;;;;5093607;28;20020;-77
2021/07/28 01:39:13;;;;;;;41.25;17.38;;;;;;;;;;5093572;28;20028;-78
2021/07/28 01:41:39;;;;;;;47.75;17.77;;;;;;;;;;5093616;28;20114;-77
2021/07/28 01:44:04;;;;;;;40.78;17.45;;;;;;;;;;5093626;28;20025;-78
2021/07/28 01:46:29;;;;;;;39.42;17.73;;;;;;;;;;5092473;28;20082;-78
2021/07/28 01:48:54;;;;;;;36.75;15.75;;;;;;;;;;5093534;28;20028;-78
2021/07/28 01:51:20;;;;;;;56.67;18.90;;;;;;;;;;5093565;28;20056;-78
2021/07/28 01:53:45;;;;;;;41.05;17.20;;;;;;;;;;5092384;28;20078;-78
2021/07/28 01:56:10;;;;;;;54.53;17.65;;;;;;;;;;5093362;28;20460;-78
2021/07/28 01:58:39;;;;;;;38.80;16.45;;;;;;;;;;5093432;28;20039;-78
2021/07/28 02:01:05;;;;;;;54.88;18.38;;;;;;;;;;5092884;28;20128;-78
2021/07/28 02:03:30;;;;;;;34.88;15.43;;;;;;;;;;5093026;28;20507;-78
2021/07/28 02:05:55;;;;;;;44.13;16.10;;;;;;;;;;5093138;28;20044;-78
2021/07/28 02:08:20;;;;;;;36.53;15.77;;;;;;;;;;5093401;28;20153;-78
2021/07/28 02:10:47;;;;;;;49.58;16.75;;;;;;;;;;5093333;28;20020;-78
2021/07/28 02:13:12;;;;;;;36.83;14.75;;;;;;;;;;5093321;28;20103;-77
2021/07/28 02:15:38;;;;;;;35.20;15.73;;;;;;;;;;5093258;28;20158;-78
2021/07/28 02:18:04;;;;;;;34.95;14.63;;;;;;;;;;5093191;28;20032;-78
2021/07/28 02:20:29;;;;;;;42.05;17.58;;;;;;;;;;5093033;28;20040;-78
2021/07/28 02:22:55;;;;;;;51.05;17.95;;;;;;;;;;5092977;28;20032;-78
2021/07/28 02:25:21;;;;;;;38.42;15.75;;;;;;;;;;5093191;28;20031;-78
2021/07/28 02:27:46;;;;;;;31.75;15.10;;;;;;;;;;5095762;28;20058;-78
2021/07/28 02:30:12;;;;;;;37.20;14.98;;;;;;;;;;5096967;28;20043;-78
2021/07/28 02:32:38;;;;;;;40.70;15.73;;;;;;;;;;5096996;28;20027;-78
2021/07/28 02:35:04;;;;;;;47.35;18.00;;;;;;;;;;5096965;28;20069;-78
2021/07/28 02:37:29;;;;;;;46.78;18.13;;;;;;;;;;5096738;28;20082;-78
2021/07/28 02:39:54;;;;;;;42.10;16.27;;;;;;;;;;5096858;28;20093;-78
2021/07/28 02:42:20;;;;;;;47.03;17.30;;;;;;;;;;5096488;28;20099;-78
2021/07/28 02:44:45;;;;;;;44.42;17.73;;;;;;;;;;5096760;28;20032;-78
2021/07/28 02:47:10;;;;;;;41.38;16.55;;;;;;;;;;5096565;28;20349;-78
2021/07/28 02:49:36;;;;;;;33.75;15.45;;;;;;;;;;5096844;28;20020;-78
2021/07/28 02:52:02;;;;;;;45.35;17.63;;;;;;;;;;5096589;28;20468;-78
2021/07/28 02:54:27;;;;;;;43.88;17.85;;;;;;;;;;5096626;28;20403;-78
2021/07/28 02:56:52;;;;;;;41.63;18.90;;;;;;;;;;5096501;28;20031;-78
2021/07/28 02:59:18;;;;;;;50.33;21.08;;;;;;;;;;5096452;28;20028;-77
2021/07/28 03:01:43;;;;;;;40.63;17.65;;;;;;;;;;5096531;28;20421;-78
2021/07/28 03:04:08;;;;;;;55.85;19.60;;;;;;;;;;5096663;28;20028;-78
2021/07/28 03:06:33;;;;;;;53.15;18.98;;;;;;;;;;5096435;28;20038;-78
2021/07/28 03:08:59;;;;;;;48.22;18.63;;;;;;;;;;5096302;28;20020;-78
2021/07/28 03:11:24;;;;;;;37.95;17.33;;;;;;;;;;5095930;28;20095;-78
2021/07/28 03:13:50;;;;;;;44.78;18.85;;;;;;;;;;5096246;28;20040;-78
2021/07/28 03:16:15;;;;;;;44.63;18.58;;;;;;;;;;5096078;28;20078;-78
2021/07/28 03:18:41;;;;;;;44.00;18.13;;;;;;;;;;5096457;28;20375;-78
2021/07/28 03:21:06;;;;;;;40.20;17.05;;;;;;;;;;5096130;28;20102;-78
2021/07/28 03:23:31;;;;;;;43.80;16.67;;;;;;;;;;5095672;28;20016;-78
2021/07/28 03:25:57;;;;;;;36.50;16.65;;;;;;;;;;5096272;28;20050;-78
2021/07/28 03:28:22;;;;;;;47.45;18.13;;;;;;;;;;5095897;28;20036;-78
2021/07/28 03:30:49;;;;;;;42.38;18.55;;;;;;;;;;5096050;28;20376;-78
2021/07/28 03:33:15;;;;;;;39.45;17.10;;;;;;;;;;5095555;28;20487;-78
2021/07/28 03:35:40;;;;;;;41.30;17.00;;;;;;;;;;5095682;28;20028;-78
2021/07/28 03:38:05;;;;;;;54.67;19.40;;;;;;;;;;5095103;28;20157;-78
2021/07/28 03:40:30;;;;;;;42.35;18.13;;;;;;;;;;5095381;28;20460;-78
2021/07/28 03:42:56;;;;;;;40.88;18.17;;;;;;;;;;5095685;28;20119;-78
2021/07/28 03:45:21;;;;;;;49.45;19.90;;;;;;;;;;5095595;28;20020;-78
2021/07/28 03:47:46;;;;;;;51.58;18.55;;;;;;;;;;5095579;28;20065;-78
2021/07/28 03:50:12;;;;;;;46.22;18.98;;;;;;;;;;5095461;28;20091;-78
2021/07/28 03:52:37;;;;;;;43.65;17.63;;;;;;;;;;5094231;28;20557;-78
2021/07/28 03:55:02;;;;;;;43.88;17.95;;;;;;;;;;5095453;28;20115;-78
2021/07/28 03:57:27;;;;;;;35.58;17.10;;;;;;;;;;5095317;28;20040;-78
2021/07/28 03:59:53;;;;;;;45.55;17.67;;;;;;;;;;5095282;28;20024;-78
2021/07/28 04:02:18;;;;;;;48.92;19.83;;;;;;;;;;5095329;28;20055;-78
2021/07/28 04:04:43;;;;;;;48.88;19.75;;;;;;;;;;5095244;28;20108;-78
2021/07/28 04:07:08;;;;;;;40.35;18.55;;;;;;;;;;5094840;28;20464;-78
2021/07/28 04:09:34;;;;;;;48.85;19.98;;;;;;;;;;5095196;28;20016;-78
2021/07/28 04:11:59;;;;;;;55.25;19.85;;;;;;;;;;5095066;28;20421;-78
2021/07/28 04:14:24;;;;;;;56.03;20.45;;;;;;;;;;5095088;28;20521;-78
2021/07/28 04:16:50;;;;;;;36.70;18.38;;;;;;;;;;5094631;28;20016;-78
2021/07/28 04:19:15;;;;;;;40.08;17.30;;;;;;;;;;5094927;28;20119;-78
2021/07/28 04:21:40;;;;;;;26.45;14.18;;;;;;;;;;5094462;28;20763;-78
2021/07/28 04:24:06;;;;;;;25.08;13.18;;;;;;;;;;5094668;28;20031;-78
2021/07/28 04:26:31;;;;;;;21.58;10.35;;;;;;;;;;5094776;28;20065;-78
2021/07/28 04:28:56;;;;;;;14.88;9.25;;;;;;;;;;5094769;28;20028;-78
2021/07/28 04:31:21;;;;;;;18.88;10.63;;;;;;;;;;5094376;28;20107;-78
2021/07/28 04:33:47;;;;;;;17.00;9.30;;;;;;;;;;5094612;28;20039;-78
2021/07/28 04:36:12;;;;;;;18.50;11.05;;;;;;;;;;5094435;28;20077;-78
2021/07/28 04:38:37;;;;;;;16.92;9.45;;;;;;;;;;5094586;28;20036;-79
2021/07/28 04:41:02;;;;;;;12.25;7.32;;;;;;;;;;5093782;28;20036;-78
2021/07/28 04:43:28;;;;;;;7.18;5.38;;;;;;;;;;5094504;28;20020;-78
2021/07/28 04:46:00;;;;;;;14.95;7.88;;;;;;;;;;5093404;28;20032;-78
2021/07/28 04:48:29;;;;;;;10.07;5.90;;;;;;;;;;5094377;28;20040;-78
2021/07/28 04:50:55;;;;;;;15.35;6.07;;;;;;;;;;5093125;28;20460;-78
2021/07/28 04:53:20;;;;;;;12.75;6.32;;;;;;;;;;5094223;28;20080;-78
2021/07/28 04:55:52;;;;;;;11.23;6.65;;;;;;;;;;5094000;28;20464;-78
2021/07/28 04:58:18;;;;;;;12.50;5.88;;;;;;;;;;5094065;28;20034;-78
2021/07/28 05:00:43;;;;;;;11.98;6.97;;;;;;;;;;5094160;28;20032;-78
2021/07/28 05:03:08;;;;;;;11.20;6.65;;;;;;;;;;5092912;28;20038;-78
2021/07/28 05:05:34;;;;;;;9.82;5.55;;;;;;;;;;5094214;28;20020;-78
2021/07/28 05:07:59;;;;;;;12.20;6.85;;;;;;;;;;5093739;28;20036;-78
2021/07/28 05:10:25;;;;;;;13.32;7.18;;;;;;;;;;5093982;28;20032;-78
2021/07/28 05:12:50;;;;;;;10.30;6.00;;;;;;;;;;5093989;28;20055;-78
2021/07/28 05:15:15;;;;;;;11.25;6.53;;;;;;;;;;5093924;28;20043;-78
2021/07/28 05:17:41;;;;;;;14.45;7.22;;;;;;;;;;5093811;28;20090;-78
2021/07/28 05:20:06;;;;;;;8.40;5.20;;;;;;;;;;5093881;28;20051;-78
2021/07/28 05:22:32;;;;;;;10.32;5.60;;;;;;;;;;5093524;28;20438;-78
2021/07/28 05:24:57;;;;;;;9.25;5.60;;;;;;;;;;5094040;28;20024;-78
2021/07/28 05:27:22;;;;;;;9.98;4.75;;;;;;;;;;5093766;28;20103;-78
2021/07/28 05:29:48;;;;;;;10.23;5.05;;;;;;;;;;5093791;28;20039;-77
2021/07/28 05:32:13;;;;;;;7.35;4.97;;;;;;;;;;5093689;28;20107;-78
2021/07/28 05:34:38;;;;;;;8.30;4.88;;;;;;;;;;5093664;28;20035;-78
2021/07/28 05:37:04;;;;;;;7.57;5.35;;;;;;;;;;5093501;28;20040;-78
2021/07/28 05:39:29;;;;;;;10.00;4.57;;;;;;;;;;5093685;28;20024;-78
2021/07/28 05:41:56;;;;;;;8.55;4.60;;;;;;;;;;5093742;28;20154;-78
2021/07/28 05:44:22;;;;;;;8.05;4.47;;;;;;;;;;5093567;28;20024;-78
2021/07/28 05:46:47;;;;;;;7.07;4.07;;;;;;;;;;5093629;28;20039;-78
2021/07/28 05:49:12;;;;;;;10.32;5.72;;;;;;;;;;5093193;28;20020;-78
2021/07/28 05:51:38;;;;;;;7.95;3.72;;;;;;;;;;5093540;28;20028;-78
2021/07/28 05:54:03;;;;;;;8.15;3.38;;;;;;;;;;5093490;28;20028;-78
2021/07/28 05:56:28;;;;;;;4.60;3.28;;;;;;;;;;5093568;28;20021;-78
2021/07/28 05:58:53;;;;;;;5.65;2.85;;;;;;;;;;5093380;28;20075;-78
2021/07/28 06:01:20;;;;;;;5.43;3.08;;;;;;;;;;5093546;28;20422;-78
2021/07/28 06:03:45;;;;;;;4.53;2.40;;;;;;;;;;5097317;28;20442;-78
2021/07/28 06:06:11;;;;;;;4.20;2.33;;;;;;;;;;5097533;28;20082;-78
2021/07/28 06:08:36;;;;;;;6.63;2.20;;;;;;;;;;5097480;28;20047;-78
2021/07/28 06:11:01;;;;;;;3.45;2.03;;;;;;;;;;5097515;28;20012;-78
2021/07/28 06:13:27;;;;;;;3.50;2.10;;;;;;;;;;5097353;28;20060;-78
2021/07/28 06:15:52;;;;;;;3.25;2.08;;;;;;;;;;5097638;28;20464;-78
2021/07/28 06:18:17;;;;;;;3.80;1.90;;;;;;;;;;5097444;28;20028;-78
2021/07/28 06:20:42;;;;;;;6.85;2.00;;;;;;;;;;5097433;28;20047;-78
2021/07/28 06:23:08;;;;;;;3.53;1.80;;;;;;;;;;5097164;28;20428;-78
2021/07/28 06:25:33;;;;;;;4.25;1.95;;;;;;;;;;5097178;28;20016;-78
2021/07/28 06:27:58;;;;;;;4.18;2.30;;;;;;;;;;5097301;28;20039;-78
2021/07/28 06:30:24;;;;;;;3.47;2.08;;;;;;;;;;5097374;28;20074;-78
2021/07/28 06:32:49;;;;;;;4.03;1.95;;;;;;;;;;5097144;28;20024;-78
2021/07/28 06:35:14;;;;;;;2.85;1.77;;;;;;;;;;5096763;28;20034;-78
2021/07/28 06:37:40;;;;;;;3.95;2.08;;;;;;;;;;5096884;28;20477;-78
2021/07/28 06:40:06;;;;;;;3.67;2.13;;;;;;;;;;5096783;28;20020;-78
2021/07/28 06:42:31;;;;;;;10.88;1.75;;;;;;;;;;5096515;28;20105;-78
2021/07/28 06:44:56;;;;;;;7.63;1.92;;;;;;;;;;5096331;28;20071;-78
2021/07/28 06:47:22;;;;;;;6.43;1.63;;;;;;;;;;5096309;28;20483;-77
2021/07/28 06:49:47;;;;;;;2.58;1.50;;;;;;;;;;5096718;28;20032;-77
2021/07/28 06:52:12;;;;;;;3.58;1.92;;;;;;;;;;5096504;28;20354;-77
2021/07/28 06:54:38;;;;;;;3.28;1.73;;;;;;;;;;5096568;28;20364;-77
2021/07/28 06:57:03;;;;;;;3.13;1.88;;;;;;;;;;5096216;28;20043;-77
2021/07/28 06:59:28;;;;;;;6.70;1.70;;;;;;;;;;5096127;28;20028;-77
2021/07/28 07:01:53;;;;;;;4.13;1.67;;;;;;;;;;5096448;28;20020;-77
2021/07/28 07:04:19;;;;;;;3.30;1.83;;;;;;;;;;5096348;28;20040;-77
2021/07/28 07:06:44;;;;;;;3.20;1.80;;;;;;;;;;5096334;28;20047;-77
2021/07/28 07:09:09;;;;;;;4.13;2.75;;;;;;;;;;5096254;28;20020;-77
2021/07/28 07:11:34;;;;;;;5.95;1.90;;;;;;;;;;5095968;28;20032;-77
2021/07/28 07:14:00;;;;;;;7.40;2.08;;;;;;;;;;5095089;28;20035;-78
2021/07/28 07:16:25;;;;;;;4.47;2.13;;;;;;;;;;5095778;28;20024;-78
2021/07/28 07:18:50;;;;;;;7.03;2.40;;;;;;;;;;5096090;28;20044;-78
2021/07/28 07:21:16;;;;;;;3.95;2.05;;;;;;;;;;5095617;28;20048;-78
2021/07/28 07:23:41;;;;;;;2.92;2.00;;;;;;;;;;5095988;28;20099;-78
2021/07/28 07:26:07;;;;;;;6.10;2.17;;;;;;;;;;5095900;28;20032;-78
2021/07/28 07:28:34;;;;;;;6.45;2.08;;;;;;;;;;5095927;28;20032;-77
2021/07/28 07:30:59;;;;;;;4.32;1.90;;;;;;;;;;5096069;28;20469;-78
2021/07/28 07:33:38;;;;;;;6.95;2.38;;;;;;;;;;5095471;28;20110;-78
2021/07/28 07:36:03;;;;;;;7.18;2.30;;;;;;;;;;5095756;28;20081;-78
2021/07/28 07:38:29;;;;;;;8.68;2.30;;;;;;;;;;5095643;28;20119;-78
2021/07/28 07:40:54;;;;;;;3.92;2.28;;;;;;;;;;5095486;28;20484;-78
2021/07/28 07:43:19;;;;;;;6.00;3.05;;;;;;;;;;5095024;28;20023;-78
2021/07/28 07:45:44;;;;;;;7.38;2.55;;;;;;;;;;5095788;28;20047;-78
2021/07/28 07:48:10;;;;;;;3.65;2.35;;;;;;;;;;5095762;28;20141;-78
2021/07/28 07:50:35;;;;;;;6.45;2.85;;;;;;;;;;5095371;28;20020;-78
2021/07/28 07:53:01;;;;;;;5.22;2.25;;;;;;;;;;5095195;28;20105;-78
2021/07/28 07:55:27;;;;;;;5.60;2.40;;;;;;;;;;5095441;28;20361;-78
2021/07/28 07:57:52;;;;;;;7.10;2.90;;;;;;;;;;5095305;28;20089;-78
2021/07/28 08:00:17;;;;;;;4.75;2.80;;;;;;;;;;5095232;28;20038;-78
2021/07/28 08:02:43;;;;;;;5.90;3.53;;;;;;;;;;5093985;28;20035;-78
2021/07/28 08:05:08;;;;;;;4.30;2.78;;;;;;;;;;5094939;28;20509;-78
2021/07/28 08:07:33;;;;;;;5.93;3.00;;;;;;;;;;5095075;28;20035;-77
2021/07/28 08:09:59;;;;;;;5.60;3.15;;;;;;;;;;5087884;28;20058;-78
2021/07/28 08:12:24;;;;;;;10.43;3.55;;;;;;;;;;5088660;28;20028;-78
2021/07/28 08:14:50;;;;;;;6.35;3.47;;;;;;;;;;5091159;28;20055;-78
2021/07/28 08:17:15;;;;;;;4.47;3.10;;;;;;;;;;5091054;28;20040;-78
2021/07/28 08:19:40;;;;;;;6.90;2.90;;;;;;;;;;5091044;28;20028;-78
2021/07/28 08:22:06;;;;;;;8.70;3.35;;;;;;;;;;5092100;28;20379;-78
2021/07/28 08:24:31;;;;;;;5.80;2.78;;;;;;;;;;5090594;28;20020;-78
2021/07/28 08:26:56;;;;;;;10.75;3.20;;;;;;;;;;5091126;28;20020;-78
2021/07/28 08:29:21;;;;;;;5.75;2.70;;;;;;;;;;5090439;28;20046;-78
2021/07/28 08:31:48;;;;;;;4.22;2.90;;;;;;;;;;5089904;28;20385;-78
2021/07/28 08:34:13;;;;;;;4.95;2.90;;;;;;;;;;5090690;28;20020;-78
2021/07/28 08:36:38;;;;;;;4.03;2.70;;;;;;;;;;5091153;28;20062;-78
2021/07/28 08:39:03;;;;;;;4.93;2.72;;;;;;;;;;5090788;28;20531;-78
2021/07/28 08:41:29;;;;;;;5.70;3.10;;;;;;;;;;5090553;28;20016;-78
2021/07/28 08:43:58;;;;;;;4.05;2.65;;;;;;;;;;5091104;28;20043;-78
2021/07/28 08:46:27;;;;;;;6.50;2.65;;;;;;;;;;5090676;28;20487;-78
2021/07/28 08:48:52;;;;;;;4.55;3.00;;;;;;;;;;5091039;28;20058;-78
2021/07/28 08:51:18;;;;;;;7.78;2.67;;;;;;;;;;5091456;28;20479;-78
2021/07/28 08:53:43;;;;;;;4.07;2.80;;;;;;;;;;5090836;28;20050;-78
2021/07/28 08:56:08;;;;;;;8.07;2.88;;;;;;;;;;5090979;28;20020;-78
2021/07/28 08:58:34;;;;;;;6.47;2.67;;;;;;;;;;5090616;28;20138;-78
2021/07/28 09:00:59;;;;;;;4.88;2.40;;;;;;;;;;5090193;28;20028;-78
2021/07/28 09:03:25;;;;;;;4.22;3.00;;;;;;;;;;5076501;28;20020;-78
2021/07/28 09:05:51;;;;;;;4.32;2.75;;;;;;;;;;5069910;28;20072;-77
2021/07/28 09:08:22;;;;;;;3.25;2.17;;;;;;;;;;5086797;28;20028;-78
2021/07/28 09:10:52;;;;;;;3.90;2.67;;;;;;;;;;5089540;28;20035;-78
2021/07/28 09:13:27;;;;;;;4.43;2.60;;;;;;;;;;5088180;28;20039;-78
2021/07/28 09:15:54;;;;;;;4.05;2.30;;;;;;;;;;5090110;28;20056;-78
2021/07/28 09:18:26;;;;;;;4.38;1.83;;;;;;;;;;5089983;28;20491;-79
2021/07/28 09:20:51;;;;;;;3.60;1.90;;;;;;;;;;5090723;28;20044;-78
2021/07/28 09:23:17;;;;;;;3.72;2.08;;;;;;;;;;5090820;28;20027;-79
2021/07/28 09:25:42;;;;;;;3.50;1.90;;;;;;;;;;5089849;28;20395;-78
2021/07/28 09:28:17;;;;;;;3.67;2.15;;;;;;;;;;5091413;28;20452;-78
2021/07/28 09:30:42;;;;;;;3.13;1.67;;;;;;;;;;5090794;28;20072;-78
2021/07/28 09:33:10;;;;;;;2.42;1.63;;;;;;;;;;5091115;28;20127;-78
2021/07/28 09:35:47;;;;;;;2.97;2.00;;;;;;;;;;5089902;28;20407;-78
2021/07/28 09:38:31;;;;;;;6.20;2.10;;;;;;;;;;5090583;28;20040;-78
2021/07/28 09:41:17;;;;;;;6.05;1.83;;;;;;;;;;5090354;28;20028;-78
2021/07/28 09:43:44;;;;;;;4.72;1.95;;;;;;;;;;5091017;28;20487;-78
2021/07/28 09:46:29;;;;;;;5.60;2.30;;;;;;;;;;5090358;28;20086;-78
2021/07/28 09:48:55;;;;;;;6.47;2.05;;;;;;;;;;5087966;28;20032;-78
2021/07/28 09:51:24;;;;;;;3.15;1.85;;;;;;;;;;5090948;28;20491;-78
2021/07/28 09:53:53;;;;;;;4.38;2.00;;;;;;;;;;5091178;28;20025;-78
2021/07/28 09:56:26;;;;;;;4.50;2.67;;;;;;;;;;5090448;28;20032;-79
2021/07/28 09:58:51;;;;;;;7.35;2.10;;;;;;;;;;5090815;28;20050;-79
2021/07/28 10:01:16;;;;;;;3.80;1.60;;;;;;;;;;5089617;28;20024;-78
2021/07/28 10:03:42;;;;;;;6.15;2.40;;;;;;;;;;5089905;28;20060;-78
2021/07/28 10:06:07;;;;;;;4.57;2.08;;;;;;;;;;5089702;28;20131;-78
2021/07/28 10:08:33;;;;;;;3.40;1.70;;;;;;;;;;5090443;28;20448;-78
2021/07/28 10:10:58;;;;;;;3.90;1.77;;;;;;;;;;5090324;28;20028;-78
2021/07/28 10:13:23;;;;;;;2.60;1.55;;;;;;;;;;5089504;28;20036;-78
2021/07/28 10:15:49;;;;;;;4.18;2.00;;;;;;;;;;5089290;28;20016;-78
2021/07/28 10:18:16;;;;;;;2.30;1.30;;;;;;;;;;5089849;28;20079;-78
2021/07/28 10:20:41;;;;;;;3.47;1.30;;;;;;;;;;5088582;28;20052;-78
2021/07/28 10:23:06;;;;;;;2.80;1.40;;;;;;;;;;5089685;28;20020;-78
2021/07/28 10:25:32;;;;;;;2.22;1.20;;;;;;;;;;5090144;28;20114;-78
2021/07/28 10:27:57;;;;;;;2.05;1.27;;;;;;;;;;5086703;28;20921;-78
2021/07/28 10:30:23;;;;;;;5.15;1.20;;;;;;;;;;5088481;28;20020;-78
2021/07/28 10:32:48;;;;;;;2.15;0.95;;;;;;;;;;5089149;28;20480;-78
2021/07/28 10:35:27;;;;;;;2.92;1.00;;;;;;;;;;5088932;28;20038;-78
2021/07/28 10:38:01;;;;;;;4.55;1.50;;;;;;;;;;5089496;28;20131;-78
2021/07/28 10:40:26;;;;;;;2.65;1.25;;;;;;;;;;5088597;28;20038;-79
2021/07/28 10:42:55;;;;;;;2.50;1.33;;;;;;;;;;5089629;28;20398;-78
2021/07/28 10:45:20;;;;;;;4.13;1.58;;;;;;;;;;5089086;28;20317;-79
2021/07/28 10:47:50;;;;;;;4.18;1.27;;;;;;;;;;5090807;28;20413;-79
2021/07/28 10:50:21;;;;;;;4.68;1.65;;;;;;;;;;5093076;28;20571;-79
2021/07/28 10:52:50;;;;;;;2.30;1.45;;;;;;;;;;5093769;28;20060;-78
2021/07/28 10:55:17;;;;;;;4.03;1.65;;;;;;;;;;5093103;28;20036;-78
2021/07/28 10:57:45;;;;;;;4.05;1.58;;;;;;;;;;5093067;28;20076;-78
2021/07/28 11:00:12;;;;;;;5.10;1.60;;;;;;;;;;5092368;28;20507;-78
2021/07/28 11:02:53;;;;;;;3.17;1.30;;;;;;;;;;5091152;28;20378;-79
2021/07/28 11:05:19;;;;;;;4.53;1.60;;;;;;;;;;5091853;28;20028;-78
2021/07/28 11:08:03;;;;;;;4.45;1.38;;;;;;;;;;5092509;28;20035;-78
2021/07/28 11:10:28;;;;;;;2.65;1.60;;;;;;;;;;5092776;28;20032;-79
2021/07/28 11:12:54;;;;;;;5.40;2.40;;;;;;;;;;5092696;28;20032;-78
2021/07/28 11:15:19;;;;;;;7.38;2.10;;;;;;;;;;5092725;28;20153;-78
2021/07/28 11:17:45;;;;;;;4.82;2.45;;;;;;;;;;5092308;28;20036;-78
2021/07/28 11:20:23;;;;;;;5.63;2.25;;;;;;;;;;5092372;28;20056;-79
2021/07/28 11:22:48;;;;;;;4.90;1.65;;;;;;;;;;5092069;28;20028;-78
2021/07/28 11:25:14;;;;;;;6.88;2.35;;;;;;;;;;5092224;28;20460;-78
2021/07/28 11:27:39;;;;;;;3.72;2.20;;;;;;;;;;5092350;28;20488;-78
2021/07/28 11:30:14;;;;;;;4.07;1.40;;;;;;;;;;5092932;28;20039;-78
2021/07/28 11:32:39;;;;;;;4.60;1.40;;;;;;;;;;5091917;28;20031;-78
2021/07/28 11:35:05;;;;;;;4.50;1.38;;;;;;;;;;5092241;28;20054;-78
2021/07/28 11:37:30;;;;;;;4.90;1.42;;;;;;;;;;5091762;28;20460;-79
2021/07/28 11:39:56;;;;;;;4.38;1.30;;;;;;;;;;5091609;28;20020;-78
2021/07/28 11:42:26;;;;;;;7.55;1.70;;;;;;;;;;5091590;28;20435;-78
2021/07/28 11:44:51;;;;;;;3.55;0.80;;;;;;;;;;5092001;28;20068;-78
2021/07/28 11:47:23;;;;;;;4.18;1.30;;;;;;;;;;5091800;28;20141;-78
2021/07/28 11:49:59;;;;;;;4.20;1.02;;;;;;;;;;5091481;28;20472;-78
2021/07/28 11:52:24;;;;;;;6.30;1.30;;;;;;;;;;5091447;28;20120;-78
2021/07/28 11:54:49;;;;;;;7.93;1.85;;;;;;;;;;5091859;28;20472;-78
2021/07/28 11:57:17;;;;;;;4.53;1.20;;;;;;;;;;5091661;28;20043;-78
2021/07/28 11:59:42;;;;;;;7.13;2.20;;;;;;;;;;5090370;28;20028;-78
2021/07/28 12:02:18;;;;;;;3.95;1.35;;;;;;;;;;5091481;28;20084;-79
2021/07/28 12:04:46;;;;;;;11.82;1.80;;;;;;;;;;5091172;28;20135;-79
2021/07/28 12:07:12;;;;;;;5.20;1.48;;;;;;;;;;5088239;28;20064;-78
2021/07/28 12:09:37;;;;;;;5.05;1.30;;;;;;;;;;5091540;28;20047;-78
2021/07/28 12:12:08;;;;;;;4.88;1.45;;;;;;;;;;5085770;28;20016;-79
2021/07/28 12:14:45;;;;;;;6.30;1.30;;;;;;;;;;5090365;28;20028;-78
2021/07/28 12:17:13;;;;;;;2.22;1.17;;;;;;;;;;5084008;28;20062;-79
2021/07/28 12:19:39;;;;;;;4.75;1.45;;;;;;;;;;5089941;28;20028;-78
2021/07/28 12:22:04;;;;;;;4.10;1.17;;;;;;;;;;5089751;28;20036;-79
2021/07/28 12:24:34;;;;;;;3.15;1.05;;;;;;;;;;5089533;28;20754;-79
2021/07/28 12:27:18;;;;;;;2.80;0.70;;;;;;;;;;5090835;28;20020;-78
2021/07/28 12:29:55;;;;;;;3.42;0.80;;;;;;;;;;5089837;28;20028;-78
2021/07/28 12:32:32;;;;;;;4.38;0.80;;;;;;;;;;5089465;28;20032;-79
2021/07/28 12:34:57;;;;;;;2.88;0.52;;;;;;;;;;5089381;28;20038;-78
2021/07/28 12:37:24;;;;;;;1.40;0.60;;;;;;;;;;5088869;28;20028;-79
2021/07/28 12:39:53;;;;;;;1.75;0.60;;;;;;;;;;5089810;28;20036;-79
2021/07/28 12:42:19;;;;;;;4.38;0.93;;;;;;;;;;5090494;28;20024;-79
2021/07/28 12:44:44;;;;;;;3.25;0.80;;;;;;;;;;5083230;28;20034;-79
2021/07/28 12:47:11;;;;;;;2.47;0.70;;;;;;;;;;5090043;28;20047;-79
2021/07/28 12:49:36;;;;;;;1.55;0.57;;;;;;;;;;5089243;28;20031;-79
2021/07/28 12:52:01;;;;;;;5.22;0.57;;;;;;;;;;5088438;28;20384;-79
2021/07/28 12:54:27;;;;;;;1.88;0.65;;;;;;;;;;5089005;28;20040;-78
2021/07/28 12:56:52;;;;;;;3.42;0.65;;;;;;;;;;5089706;28;20462;-79
2021/07/28 12:59:17;;;;;;;1.23;0.55;;;;;;;;;;5088666;28;20036;-79
2021/07/28 13:01:42;;;;;;;5.22;1.00;;;;;;;;;;5088285;28;20044;-78
2021/07/28 13:04:08;;;;;;;3.97;0.70;;;;;;;;;;5087419;28;20020;-78
2021/07/28 13:06:33;;;;;;;2.47;0.63;;;;;;;;;;5089220;28;20115;-78
2021/07/28 13:08:58;;;;;;;4.63;0.80;;;;;;;;;;5089127;28;20036;-78
2021/07/28 13:11:24;;;;;;;1.90;0.50;;;;;;;;;;5089335;28;20016;-78
2021/07/28 13:13:49;;;;;;;1.50;0.50;;;;;;;;;;5091543;28;20475;-78
2021/07/28 13:16:14;;;;;;;2.47;0.93;;;;;;;;;;5090839;28;20035;-78
2021/07/28 13:18:39;;;;;;;4.32;0.75;;;;;;;;;;5090663;28;20044;-78
2021/07/28 13:21:05;;;;;;;3.33;0.63;;;;;;;;;;5091112;28;20048;-79
2021/07/28 13:23:30;;;;;;;4.20;0.50;;;;;;;;;;5090241;28;20119;-78
2021/07/28 13:25:56;;;;;;;4.80;0.70;;;;;;;;;;5091038;28;20020;-78
2021/07/28 13:28:22;;;;;;;4.05;0.80;;;;;;;;;;5089478;28;20035;-79
2021/07/28 13:30:47;;;;;;;1.60;0.30;;;;;;;;;;5090092;28;20111;-78
2021/07/28 13:33:12;;;;;;;2.25;0.77;;;;;;;;;;5089909;28;20364;-78
2021/07/28 13:35:38;;;;;;;3.33;0.47;;;;;;;;;;5089621;28;20121;-79
2021/07/28 13:38:03;;;;;;;2.13;0.50;;;;;;;;;;5090792;28;20089;-78
2021/07/28 13:40:28;;;;;;;1.75;0.47;;;;;;;;;;5089897;28;20028;-79
2021/07/28 13:42:54;;;;;;;4.90;0.98;;;;;;;;;;5090174;28;20039;-78
2021/07/28 13:45:20;;;;;;;7.07;1.90;;;;;;;;;;5090014;28;20081;-78
2021/07/28 13:47:48;;;;;;;2.58;0.60;;;;;;;;;;5090011;28;20020;-78
2021/07/28 13:50:18;;;;;;;1.60;0.50;;;;;;;;;;5089893;28;20024;-78
2021/07/28 13:52:44;;;;;;;2.13;0.60;;;;;;;;;;5089847;28;20476;-79
2021/07/28 13:55:09;;;;;;;2.95;0.50;;;;;;;;;;5090286;28;20379;-78
2021/07/28 13:57:35;;;;;;;1.17;0.52;;;;;;;;;;5089798;28;20031;-78
2021/07/28 14:00:00;;;;;;;3.40;0.80;;;;;;;;;;5089435;28;20032;-79
2021/07/28 14:02:26;;;;;;;3.92;1.20;;;;;;;;;;5090059;28;20016;-78
2021/07/28 14:04:51;;;;;;;3.10;0.63;;;;;;;;;;5089486;28;20028;-78
2021/07/28 14:07:16;;;;;;;5.35;0.82;;;;;;;;;;5090907;28;20084;-78
2021/07/28 14:09:42;;;;;;;3.00;0.73;;;;;;;;;;5089997;28;20452;-78
2021/07/28 14:12:08;;;;;;;4.95;0.70;;;;;;;;;;5090027;28;20024;-78
2021/07/28 14:14:33;;;;;;;5.68;1.10;;;;;;;;;;5089888;28;20060;-79
2021/07/28 14:16:59;;;;;;;10.65;1.38;;;;;;;;;;5089832;28;20056;-78
2021/07/28 14:19:25;;;;;;;3.15;0.80;;;;;;;;;;5090108;28;20040;-78
2021/07/28 14:21:50;;;;;;;4.70;0.77;;;;;;;;;;5089912;28;20048;-78
2021/07/28 14:24:15;;;;;;;8.10;1.20;;;;;;;;;;5093273;28;20421;-78
2021/07/28 14:26:41;;;;;;;3.47;1.13;;;;;;;;;;5093547;28;20375;-78
2021/07/28 14:29:07;;;;;;;3.50;0.77;;;;;;;;;;5093216;28;20063;-79
2021/07/28 14:31:32;;;;;;;7.55;1.33;;;;;;;;;;5093711;28;20069;-79